createdAt,value
2022-11-19T00:02:30.810Z,5.6
2022-11-19T00:10:03.137Z,5.6
2022-11-19T00:17:35.419Z,5.6
2022-11-19T00:25:07.682Z,5.6
2022-11-19T00:32:39.980Z,5.6
2022-11-19T00:40:12.292Z,5.4
2022-11-19T00:47:44.584Z,5.4
2022-11-19T00:55:16.854Z,5.4
2022-11-19T01:02:49.123Z,5.4
2022-11-19T01:10:21.425Z,5.4
2022-11-19T01:17:53.692Z,5.4
2022-11-19T01:25:25.963Z,5.4
2022-11-19T01:32:58.234Z,5.4
2022-11-19T01:40:30.538Z,4.9
2022-11-19T01:48:02.861Z,4.9
2022-11-19T01:55:35.156Z,4.9
2022-11-19T02:03:07.431Z,4.9
2022-11-19T02:10:39.740Z,4.9
2022-11-19T02:18:12.095Z,4.9
2022-11-19T02:25:44.379Z,4.9
2022-11-19T02:33:16.654Z,4.9
2022-11-19T02:40:48.918Z,5.7
2022-11-19T02:48:21.217Z,5.7
2022-11-19T02:55:53.530Z,5.7
2022-11-19T03:03:25.801Z,5.7
2022-11-19T03:10:58.111Z,5.7
2022-11-19T03:18:30.452Z,5.7
2022-11-19T03:26:02.758Z,5.7
2022-11-19T03:33:35.040Z,5.7
2022-11-19T03:41:07.308Z,6.1
2022-11-19T03:48:39.626Z,6.1
2022-11-19T03:56:11.899Z,6.1
2022-11-19T04:03:44.197Z,6.1
2022-11-19T04:18:48.799Z,6.1
2022-11-19T04:26:21.100Z,6.1
2022-11-19T04:33:53.374Z,6.1
2022-11-19T04:41:25.646Z,5.8
2022-11-19T04:48:57.911Z,5.8
2022-11-19T04:56:30.179Z,5.8
2022-11-19T05:04:02.453Z,5.8
2022-11-19T05:11:34.767Z,5.8
2022-11-19T05:19:07.080Z,5.8
2022-11-19T05:26:39.393Z,5.8
2022-11-19T05:34:11.675Z,5.8
2022-11-19T05:41:43.947Z,5.3
2022-11-19T05:49:16.412Z,5.3
2022-11-19T05:56:48.929Z,5.3
2022-11-19T06:04:21.211Z,5.3
2022-11-19T06:11:53.508Z,5.3
2022-11-19T06:19:25.825Z,5.3
2022-11-19T06:26:58.107Z,5.3
2022-11-19T06:33:27.709Z,5.3
2022-11-19T06:34:15.021Z,5.1
2022-11-19T06:35:02.330Z,5.1
2022-11-19T06:35:49.594Z,5.1
2022-11-19T06:36:41.195Z,5.1
2022-11-19T06:37:30.168Z,5.1
2022-11-19T06:38:17.609Z,5.1
2022-11-19T06:39:04.911Z,5.1
2022-11-19T06:39:52.227Z,5.1
2022-11-19T06:40:39.636Z,5.1
2022-11-19T06:41:26.941Z,5.1
2022-11-19T06:42:14.237Z,5.1
2022-11-19T06:43:01.687Z,5.1
2022-11-19T06:43:48.981Z,5.1
2022-11-19T06:44:36.288Z,5.1
2022-11-19T06:45:23.725Z,5.1
2022-11-19T06:46:11.010Z,5.1
2022-11-19T06:46:58.414Z,5.1
2022-11-19T06:47:45.738Z,5.1
2022-11-19T06:48:33.025Z,5.1
2022-11-19T06:49:20.638Z,5.1
2022-11-19T06:50:07.976Z,5.1
2022-11-19T06:50:55.266Z,5.1
2022-11-19T06:51:42.552Z,5.1
2022-11-19T06:52:29.992Z,5.1
2022-11-19T06:53:17.297Z,5.1
2022-11-19T06:54:04.572Z,5.1
2022-11-19T06:54:52.003Z,5.1
2022-11-19T06:55:39.308Z,5.1
2022-11-19T06:56:26.611Z,5.1
2022-11-19T06:57:14.049Z,5.1
2022-11-19T06:58:01.315Z,5.1
2022-11-19T06:58:48.609Z,5.1
2022-11-19T06:59:36.041Z,5.1
2022-11-19T07:00:23.303Z,5.1
2022-11-19T07:01:10.611Z,5.1
2022-11-19T07:01:58.022Z,5.1
2022-11-19T07:02:45.299Z,5.1
2022-11-19T07:03:32.559Z,5.1
2022-11-19T07:04:19.994Z,5.1
2022-11-19T07:05:07.254Z,5.1
2022-11-19T07:05:54.559Z,5.1
2022-11-19T07:06:41.964Z,5.1
2022-11-19T07:07:29.843Z,5.1
2022-11-19T07:08:17.153Z,5.1
2022-11-19T07:09:04.470Z,5.1
2022-11-19T07:09:51.744Z,5.1
2022-11-19T07:10:39.057Z,5.1
2022-11-19T07:11:26.352Z,5.1
2022-11-19T07:12:13.622Z,5.1
2022-11-19T07:13:00.922Z,5.1
2022-11-19T07:13:48.256Z,5.1
2022-11-19T07:14:35.525Z,5.1
2022-11-19T07:15:22.810Z,5.1
2022-11-19T07:16:10.116Z,5.1
2022-11-19T07:16:57.394Z,5.1
2022-11-19T07:17:44.712Z,5.1
2022-11-19T07:18:32.020Z,5.1
2022-11-19T07:19:19.506Z,5.1
2022-11-19T07:20:06.963Z,5.1
2022-11-19T07:20:54.274Z,5.1
2022-11-19T07:21:41.547Z,5.1
2022-11-19T07:22:28.857Z,5.1
2022-11-19T07:23:16.135Z,5.1
2022-11-19T07:24:03.411Z,5.1
2022-11-19T07:24:50.691Z,5.1
2022-11-19T07:25:38.011Z,5.1
2022-11-19T07:26:25.320Z,5.1
2022-11-19T07:27:12.633Z,5.1
2022-11-19T07:27:59.920Z,5.1
2022-11-19T07:28:47.229Z,5.1
2022-11-19T07:29:34.546Z,5.1
2022-11-19T07:30:21.820Z,5.1
2022-11-19T07:31:09.112Z,7.1
2022-11-19T07:31:56.423Z,7.1
2022-11-19T07:32:43.686Z,7.1
2022-11-19T07:33:30.946Z,7.1
2022-11-19T07:34:18.267Z,7.1
2022-11-19T07:35:05.582Z,7.1
2022-11-19T07:35:52.861Z,7.1
2022-11-19T07:36:40.131Z,7.1
2022-11-19T07:37:27.392Z,7.1
2022-11-19T07:38:14.692Z,7.1
2022-11-19T07:39:02.022Z,7.1
2022-11-19T07:39:49.292Z,7.1
2022-11-19T07:40:36.568Z,7.1
2022-11-19T07:41:23.876Z,7.1
2022-11-19T07:42:11.191Z,7.1
2022-11-19T07:42:58.484Z,7.1
2022-11-19T07:43:45.791Z,7.1
2022-11-19T07:44:33.083Z,7.1
2022-11-19T07:45:20.379Z,7.1
2022-11-19T07:46:07.651Z,7.1
2022-11-19T07:46:55.286Z,7.1
2022-11-19T07:47:42.604Z,7.1
2022-11-19T07:48:29.874Z,7.1
2022-11-19T07:49:17.504Z,7.1
2022-11-19T07:50:05.220Z,7.1
2022-11-19T07:50:56.483Z,7.1
2022-11-19T07:51:43.996Z,7.1
2022-11-19T07:52:31.307Z,7.1
2022-11-19T07:53:18.609Z,7.1
2022-11-19T07:54:05.926Z,7.1
2022-11-19T07:54:53.221Z,7.1
2022-11-19T07:55:40.478Z,7.1
2022-11-19T07:56:27.789Z,7.1
2022-11-19T07:57:15.075Z,7.1
2022-11-19T07:58:02.338Z,7.1
2022-11-19T07:58:49.641Z,7.1
2022-11-19T07:59:37.112Z,7.1
2022-11-19T08:00:24.417Z,7.1
2022-11-19T08:01:11.684Z,7.1
2022-11-19T08:01:59.008Z,7.1
2022-11-19T08:02:46.350Z,7.1
2022-11-19T08:03:33.637Z,7.1
2022-11-19T08:04:20.903Z,7.1
2022-11-19T08:05:08.162Z,7.1
2022-11-19T08:05:55.419Z,7.1
2022-11-19T08:06:43.493Z,7.1
2022-11-19T08:07:31.036Z,7.1
2022-11-19T08:08:18.343Z,7.1
2022-11-19T08:09:05.672Z,7.1
2022-11-19T08:09:52.985Z,7.1
2022-11-19T08:10:40.293Z,7.1
2022-11-19T08:11:27.568Z,7.1
2022-11-19T08:12:14.923Z,7.1
2022-11-19T08:13:02.190Z,7.1
2022-11-19T08:13:49.462Z,7.1
2022-11-19T08:14:36.777Z,7.1
2022-11-19T08:15:24.048Z,7.1
2022-11-19T08:16:11.314Z,7.1
2022-11-19T08:16:58.705Z,7.1
2022-11-19T08:17:46.022Z,7.1
2022-11-19T08:18:33.325Z,7.1
2022-11-19T08:19:20.799Z,7.1
2022-11-19T08:20:08.268Z,7.1
2022-11-19T08:20:55.674Z,7.1
2022-11-19T08:21:42.997Z,7.1
2022-11-19T08:22:30.308Z,7.1
2022-11-19T08:23:17.584Z,7.1
2022-11-19T08:24:04.904Z,7.1
2022-11-19T08:24:52.184Z,7.1
2022-11-19T08:25:39.452Z,7.1
2022-11-19T08:26:26.778Z,7.1
2022-11-19T08:27:14.054Z,7.1
2022-11-19T08:28:01.361Z,7.1
2022-11-19T08:28:48.631Z,7.1
2022-11-19T08:29:35.898Z,7.1
2022-11-19T08:30:23.188Z,7.1
2022-11-19T08:31:10.454Z,7.2
2022-11-19T08:31:57.753Z,7.2
2022-11-19T08:32:45.065Z,7.2
2022-11-19T08:33:32.372Z,7.2
2022-11-19T08:34:19.953Z,7.2
2022-11-19T08:35:07.467Z,7.2
2022-11-19T08:35:54.762Z,7.2
2022-11-19T08:36:42.031Z,7.2
2022-11-19T08:37:29.330Z,7.2
2022-11-19T08:38:16.775Z,7.2
2022-11-19T08:39:04.145Z,7.2
2022-11-19T08:39:51.453Z,7.2
2022-11-19T08:40:38.724Z,7.2
2022-11-19T08:41:25.999Z,7.2
2022-11-19T08:42:13.309Z,7.2
2022-11-19T08:43:00.633Z,7.2
2022-11-19T08:43:47.956Z,7.2
2022-11-19T08:44:35.224Z,7.2
2022-11-19T08:45:22.497Z,7.2
2022-11-19T08:46:09.767Z,7.2
2022-11-19T08:46:57.056Z,7.2
2022-11-19T08:47:44.331Z,7.2
2022-11-19T08:48:32.099Z,7.2
2022-11-19T08:49:19.563Z,7.2
2022-11-19T08:50:06.863Z,7.2
2022-11-19T08:50:54.158Z,7.2
2022-11-19T08:51:41.430Z,7.2
2022-11-19T08:52:28.737Z,7.2
2022-11-19T08:53:16.048Z,7.2
2022-11-19T08:54:03.315Z,7.2
2022-11-19T08:54:51.233Z,7.2
2022-11-19T08:55:38.786Z,7.2
2022-11-19T08:56:26.051Z,7.2
2022-11-19T08:57:13.346Z,7.2
2022-11-19T08:58:00.753Z,7.2
2022-11-19T08:58:48.014Z,7.2
2022-11-19T08:59:35.316Z,7.2
2022-11-19T09:00:22.856Z,7.2
2022-11-19T09:01:10.250Z,7.2
2022-11-19T09:01:57.566Z,7.2
2022-11-19T09:02:44.952Z,7.2
2022-11-19T09:03:32.234Z,7.2
2022-11-19T09:04:19.619Z,7.2
2022-11-19T09:05:10.643Z,7.2
2022-11-19T09:06:00.661Z,7.2
2022-11-19T09:06:47.960Z,7.2
2022-11-19T09:07:35.299Z,7.2
2022-11-19T09:08:22.636Z,7.2
2022-11-19T09:09:10.032Z,7.2
2022-11-19T09:09:57.345Z,7.2
2022-11-19T09:10:44.652Z,7.2
2022-11-19T09:11:31.979Z,7.2
2022-11-19T09:12:19.260Z,7.2
2022-11-19T09:13:06.548Z,7.2
2022-11-19T09:13:53.887Z,7.2
2022-11-19T09:14:41.177Z,7.2
2022-11-19T09:15:28.447Z,7.2
2022-11-19T09:16:15.954Z,7.2
2022-11-19T09:17:03.214Z,7.2
2022-11-19T09:17:50.521Z,7.2
2022-11-19T09:18:37.876Z,7.2
2022-11-19T09:19:25.134Z,7.2
2022-11-19T09:20:12.456Z,7.2
2022-11-19T09:20:59.847Z,7.2
2022-11-19T09:21:47.161Z,7.2
2022-11-19T09:22:34.465Z,7.2
2022-11-19T09:23:21.854Z,7.2
2022-11-19T09:24:09.119Z,7.2
2022-11-19T09:24:56.417Z,7.2
2022-11-19T09:25:43.820Z,7.2
2022-11-19T09:26:31.129Z,7.2
2022-11-19T09:27:18.395Z,7.2
2022-11-19T09:28:05.824Z,7.2
2022-11-19T09:28:53.134Z,7.2
2022-11-19T09:29:40.407Z,7.2
2022-11-19T09:30:27.835Z,7.2
2022-11-19T09:31:15.123Z,6.4
2022-11-19T09:32:02.429Z,6.4
2022-11-19T09:32:49.855Z,6.4
2022-11-19T09:33:37.161Z,6.4
2022-11-19T09:34:24.422Z,6.4
2022-11-19T09:35:11.913Z,6.4
2022-11-19T09:35:59.191Z,6.4
2022-11-19T09:36:46.493Z,6.4
2022-11-19T09:37:33.959Z,6.4
2022-11-19T09:38:21.268Z,6.4
2022-11-19T09:39:08.576Z,6.4
2022-11-19T09:39:55.966Z,6.4
2022-11-19T09:40:43.262Z,6.4
2022-11-19T09:41:30.571Z,6.4
2022-11-19T09:42:18.002Z,6.4
2022-11-19T09:43:05.267Z,6.4
2022-11-19T09:43:52.531Z,6.4
2022-11-19T09:44:40.006Z,6.4
2022-11-19T09:45:27.321Z,6.4
2022-11-19T09:46:14.595Z,6.4
2022-11-19T09:47:02.035Z,6.4
2022-11-19T09:47:49.336Z,6.4
2022-11-19T09:48:36.636Z,6.4
2022-11-19T09:49:24.035Z,6.4
2022-11-19T09:50:11.336Z,6.4
2022-11-19T09:50:58.693Z,6.4
2022-11-19T09:51:46.074Z,6.4
2022-11-19T09:52:33.351Z,6.4
2022-11-19T09:53:20.666Z,6.4
2022-11-19T09:54:08.046Z,6.4
2022-11-19T09:54:55.345Z,6.4
2022-11-19T09:55:42.649Z,6.4
2022-11-19T09:56:30.050Z,6.4
2022-11-19T09:57:17.373Z,6.4
2022-11-19T09:58:04.708Z,6.4
2022-11-19T09:58:52.103Z,6.4
2022-11-19T09:59:39.420Z,6.4
2022-11-19T10:00:26.750Z,6.4
2022-11-19T10:01:14.147Z,6.4
2022-11-19T10:02:01.449Z,6.4
2022-11-19T10:02:48.796Z,6.4
2022-11-19T10:03:36.192Z,6.4
2022-11-19T10:04:23.474Z,6.4
2022-11-19T10:05:10.747Z,6.4
2022-11-19T10:05:58.209Z,6.4
2022-11-19T10:06:45.487Z,6.4
2022-11-19T10:07:32.857Z,6.4
2022-11-19T10:08:20.245Z,6.4
2022-11-19T10:09:07.511Z,6.4
2022-11-19T10:09:54.774Z,6.4
2022-11-19T10:10:42.229Z,6.4
2022-11-19T10:11:29.545Z,6.4
2022-11-19T10:12:16.873Z,6.4
2022-11-19T10:13:04.215Z,6.4
2022-11-19T10:13:51.483Z,6.4
2022-11-19T10:14:38.780Z,6.4
2022-11-19T10:15:26.205Z,6.4
2022-11-19T10:16:13.523Z,6.4
2022-11-19T10:17:00.847Z,6.4
2022-11-19T10:17:48.221Z,6.4
2022-11-19T10:18:35.499Z,6.4
2022-11-19T10:19:22.823Z,6.4
2022-11-19T10:20:10.952Z,6.4
2022-11-19T10:20:58.236Z,6.4
2022-11-19T10:21:45.531Z,6.4
2022-11-19T10:22:32.802Z,6.4
2022-11-19T10:23:20.235Z,6.4
2022-11-19T10:24:07.494Z,6.4
2022-11-19T10:24:54.769Z,6.4
2022-11-19T10:25:42.182Z,6.4
2022-11-19T10:26:29.443Z,6.4
2022-11-19T10:27:16.750Z,6.4
2022-11-19T10:28:04.151Z,6.4
2022-11-19T10:28:51.450Z,6.4
2022-11-19T10:29:38.722Z,6.4
2022-11-19T10:30:26.154Z,6.4
2022-11-19T10:31:13.411Z,7.1
2022-11-19T10:32:00.741Z,7.1
2022-11-19T10:32:48.145Z,7.1
2022-11-19T10:33:35.420Z,7.1
2022-11-19T10:34:22.734Z,7.1
2022-11-19T10:35:10.121Z,7.1
2022-11-19T10:35:57.392Z,7.1
2022-11-19T10:36:44.667Z,7.1
2022-11-19T10:37:32.130Z,7.1
2022-11-19T10:38:19.404Z,7.1
2022-11-19T10:39:06.705Z,7.1
2022-11-19T10:39:54.124Z,7.1
2022-11-19T10:40:41.432Z,7.1
2022-11-19T10:41:28.768Z,7.1
2022-11-19T10:42:16.147Z,7.1
2022-11-19T10:43:03.421Z,7.1
2022-11-19T10:43:50.717Z,7.1
2022-11-19T10:44:38.126Z,7.1
2022-11-19T10:45:25.399Z,7.1
2022-11-19T10:46:12.662Z,7.1
2022-11-19T10:47:00.074Z,7.1
2022-11-19T10:47:47.384Z,7.1
2022-11-19T10:48:34.714Z,7.1
2022-11-19T10:49:22.131Z,7.1
2022-11-19T10:50:11.390Z,7.1
2022-11-19T10:50:58.890Z,7.1
2022-11-19T10:51:46.246Z,7.1
2022-11-19T10:52:33.506Z,7.1
2022-11-19T10:53:20.774Z,7.1
2022-11-19T10:54:08.206Z,7.1
2022-11-19T10:54:55.492Z,7.1
2022-11-19T10:55:42.797Z,7.1
2022-11-19T10:56:30.152Z,7.1
2022-11-19T10:57:17.426Z,7.1
2022-11-19T10:58:04.696Z,7.1
2022-11-19T10:58:52.097Z,7.1
2022-11-19T10:59:39.405Z,7.1
2022-11-19T11:00:26.866Z,7.1
2022-11-19T11:01:14.200Z,7.1
2022-11-19T11:02:01.523Z,7.1
2022-11-19T11:02:48.795Z,7.1
2022-11-19T11:03:36.154Z,7.1
2022-11-19T11:04:23.454Z,7.1
2022-11-19T11:05:10.761Z,7.1
2022-11-19T11:05:58.114Z,7.1
2022-11-19T11:06:45.425Z,7.1
2022-11-19T11:07:32.938Z,7.1
2022-11-19T11:08:20.279Z,7.1
2022-11-19T11:09:07.560Z,7.1
2022-11-19T11:09:54.815Z,7.1
2022-11-19T11:10:42.294Z,7.1
2022-11-19T11:11:29.613Z,7.1
2022-11-19T11:12:16.929Z,7.1
2022-11-19T11:13:04.255Z,7.1
2022-11-19T11:13:51.556Z,7.1
2022-11-19T11:14:38.866Z,7.1
2022-11-19T11:15:26.231Z,7.1
2022-11-19T11:16:13.532Z,7.1
2022-11-19T11:17:00.857Z,7.1
2022-11-19T11:17:48.245Z,7.1
2022-11-19T11:18:35.560Z,7.1
2022-11-19T11:19:23.153Z,7.1
2022-11-19T11:20:10.687Z,7.1
2022-11-19T11:20:58.001Z,7.1
2022-11-19T11:21:45.318Z,7.1
2022-11-19T11:22:32.629Z,7.1
2022-11-19T11:23:19.939Z,7.1
2022-11-19T11:24:07.214Z,7.1
2022-11-19T11:24:54.530Z,7.1
2022-11-19T11:25:41.799Z,7.1
2022-11-19T11:26:29.071Z,7.1
2022-11-19T11:27:16.399Z,7.1
2022-11-19T11:28:03.679Z,7.1
2022-11-19T11:28:50.939Z,7.1
2022-11-19T11:29:38.244Z,7.1
2022-11-19T11:30:25.554Z,7.1
2022-11-19T11:31:12.814Z,4.8
2022-11-19T11:32:00.507Z,4.8
2022-11-19T11:32:47.871Z,4.8
2022-11-19T11:33:35.203Z,4.8
2022-11-19T11:34:22.510Z,4.8
2022-11-19T11:35:13.545Z,4.8
2022-11-19T11:36:03.334Z,4.8
2022-11-19T11:36:50.789Z,4.8
2022-11-19T11:37:38.092Z,4.8
2022-11-19T11:38:25.402Z,4.8
2022-11-19T11:39:12.795Z,4.8
2022-11-19T11:40:00.122Z,4.8
2022-11-19T11:40:47.441Z,4.8
2022-11-19T11:42:32.151Z,4.8
2022-11-19T11:43:19.560Z,4.8
2022-11-19T11:44:06.846Z,4.8
2022-11-19T11:44:54.152Z,4.8
2022-11-19T11:45:41.564Z,4.8
2022-11-19T11:46:28.871Z,4.8
2022-11-19T11:47:16.157Z,4.8
2022-11-19T11:48:03.596Z,4.8
2022-11-19T11:48:51.486Z,4.8
2022-11-19T11:49:38.906Z,4.8
2022-11-19T11:50:26.283Z,4.8
2022-11-19T11:51:13.590Z,4.8
2022-11-19T11:52:00.956Z,4.8
2022-11-19T11:52:48.279Z,4.8
2022-11-19T11:53:35.577Z,4.8
2022-11-19T11:54:22.882Z,4.8
2022-11-19T11:55:10.247Z,4.8
2022-11-19T11:55:57.520Z,4.8
2022-11-19T11:56:44.828Z,4.8
2022-11-19T11:57:32.191Z,4.8
2022-11-19T11:58:19.489Z,4.8
2022-11-19T11:59:06.812Z,4.8
2022-11-19T11:59:54.169Z,4.8
2022-11-19T12:00:41.434Z,4.8
2022-11-19T12:01:28.712Z,4.8
2022-11-19T12:02:16.143Z,4.8
2022-11-19T12:03:03.440Z,4.8
2022-11-19T12:03:55.126Z,4.8
2022-11-19T12:04:42.790Z,4.8
2022-11-19T12:05:30.230Z,4.8
2022-11-19T12:06:17.592Z,4.8
2022-11-19T12:07:04.910Z,4.8
2022-11-19T12:07:52.303Z,4.8
2022-11-19T12:08:39.625Z,4.8
2022-11-19T12:09:26.956Z,4.8
2022-11-19T12:10:14.331Z,4.8
2022-11-19T12:11:01.635Z,4.8
2022-11-19T12:11:48.937Z,4.8
2022-11-19T12:12:36.369Z,4.8
2022-11-19T12:13:23.643Z,4.8
2022-11-19T12:14:11.404Z,4.8
2022-11-19T12:14:58.928Z,4.8
2022-11-19T12:15:46.315Z,4.8
2022-11-19T12:23:18.599Z,4.8
2022-11-19T12:30:50.906Z,4.8
2022-11-19T12:38:23.175Z,4.0
2022-11-19T12:45:55.444Z,4.0
2022-11-19T12:53:27.723Z,4.0
2022-11-19T13:01:00.022Z,4.0
2022-11-19T13:08:32.382Z,4.0
2022-11-19T13:16:04.658Z,4.0
2022-11-19T13:23:36.962Z,4.0
2022-11-19T13:31:09.239Z,4.0
2022-11-19T13:38:41.513Z,2.9
2022-11-19T13:46:13.780Z,2.9
2022-11-19T13:53:46.115Z,2.9
2022-11-19T14:01:18.493Z,2.9
2022-11-19T14:08:50.805Z,2.9
2022-11-19T14:16:23.105Z,2.9
2022-11-19T14:23:55.424Z,2.9
2022-11-19T14:31:27.737Z,2.9
2022-11-19T14:39:00.004Z,2.4
2022-11-19T14:46:32.273Z,2.4
2022-11-19T14:54:04.593Z,2.4
2022-11-19T15:01:37.068Z,2.4
2022-11-19T15:09:09.382Z,2.4
2022-11-19T15:16:41.655Z,2.4
2022-11-19T15:24:13.957Z,2.4
2022-11-19T15:31:46.265Z,2.4
2022-11-19T15:39:18.839Z,2.8
2022-11-19T15:46:51.270Z,2.8
2022-11-19T15:54:23.581Z,2.8
2022-11-19T16:01:55.904Z,2.8
2022-11-19T16:09:28.210Z,2.8
2022-11-19T16:17:00.509Z,2.8
2022-11-19T16:24:32.786Z,2.8
2022-11-19T16:32:05.099Z,2.8
2022-11-19T16:39:37.383Z,3.3
2022-11-19T16:47:09.654Z,3.3
2022-11-19T16:54:41.919Z,3.3
2022-11-19T17:02:14.192Z,3.3
2022-11-19T17:09:46.491Z,3.3
2022-11-19T17:17:18.804Z,3.3
2022-11-19T17:24:51.082Z,3.3
2022-11-19T17:32:23.390Z,3.3
2022-11-19T17:39:55.721Z,3.7
2022-11-19T17:47:28.058Z,3.7
2022-11-19T17:55:00.900Z,3.7
2022-11-19T17:56:40.461Z,3.7
2022-11-19T17:57:27.771Z,3.7
2022-11-19T18:05:00.095Z,3.7
2022-11-19T18:12:32.367Z,3.7
2022-11-19T18:20:04.673Z,3.7
2022-11-19T18:27:36.984Z,3.7
2022-11-19T18:35:09.349Z,3.7
2022-11-19T18:42:41.660Z,4.6
2022-11-19T18:50:13.936Z,4.6
2022-11-19T18:57:46.207Z,4.6
2022-11-19T19:05:18.494Z,4.6
2022-11-19T19:12:50.761Z,4.6
2022-11-19T19:20:23.080Z,4.6
2022-11-19T19:27:55.390Z,4.6
2022-11-19T19:35:27.659Z,4.6
2022-11-19T19:42:59.923Z,3.8
2022-11-19T19:50:32.229Z,3.8
2022-11-19T19:58:04.547Z,3.8
2022-11-19T20:05:36.890Z,3.8
2022-11-19T20:13:09.203Z,3.8
2022-11-19T20:20:41.948Z,3.8
2022-11-19T20:28:14.228Z,3.8
2022-11-19T20:35:46.493Z,3.8
2022-11-19T20:43:18.801Z,3.1
2022-11-19T20:50:51.066Z,3.1
2022-11-19T20:58:23.337Z,3.1
2022-11-19T21:05:55.605Z,3.1
2022-11-19T21:13:27.879Z,3.1
2022-11-19T21:21:00.193Z,3.1
2022-11-19T21:28:32.508Z,3.1
2022-11-19T21:36:04.814Z,3.1
2022-11-19T21:43:37.138Z,3.3
2022-11-19T21:51:09.430Z,3.3
2022-11-19T21:58:41.692Z,3.3
2022-11-19T22:06:13.966Z,3.3
2022-11-19T22:13:46.269Z,3.3
2022-11-19T22:21:18.588Z,3.3
2022-11-19T22:28:51.130Z,3.3
2022-11-19T22:36:23.391Z,3.3
2022-11-19T22:43:55.692Z,4.5
2022-11-19T22:51:27.969Z,4.5
2022-11-19T22:59:00.241Z,4.5
2022-11-19T23:06:32.507Z,4.5
2022-11-19T23:14:04.783Z,4.5
2022-11-19T23:21:37.058Z,4.5
2022-11-19T23:29:09.352Z,4.5
2022-11-19T23:36:41.663Z,4.5
2022-11-19T23:44:13.981Z,6.2
2022-11-19T23:51:46.266Z,6.2
2022-11-19T23:59:23.045Z,6.2
